sensor_id;sensor_type;location;lat;lon;timestamp;P1;durP1;ratioP1;P2;durP2;ratioP2
5585;SDS011;2815;54.094;12.112;2023-02-12T00:00:52;13.90;;;3.17;;
5585;SDS011;2815;54.094;12.112;2023-02-12T00:03:20;13.93;;;3.42;;
5585;SDS011;2815;54.094;12.112;2023-02-12T00:05:48;11.98;;;3.30;;
5585;SDS011;2815;54.094;12.112;2023-02-12T00:08:16;16.98;;;3.78;;
5585;SDS011;2815;54.094;12.112;2023-02-12T00:10:44;9.70;;;2.72;;
5585;SDS011;2815;54.094;12.112;2023-02-12T00:13:13;12.00;;;3.00;;
5585;SDS011;2815;54.094;12.112;2023-02-12T00:15:41;15.00;;;2.70;;
5585;SDS011;2815;54.094;12.112;2023-02-12T00:18:10;8.50;;;2.75;;
5585;SDS011;2815;54.094;12.112;2023-02-12T00:20:38;15.50;;;3.22;;
5585;SDS011;2815;54.094;12.112;2023-02-12T00:23:06;14.68;;;3.13;;
5585;SDS011;2815;54.094;12.112;2023-02-12T00:25:34;8.35;;;2.92;;
5585;SDS011;2815;54.094;12.112;2023-02-12T00:28:02;11.25;;;3.53;;
5585;SDS011;2815;54.094;12.112;2023-02-12T00:30:32;10.65;;;3.08;;
5585;SDS011;2815;54.094;12.112;2023-02-12T00:33:00;19.92;;;3.70;;
5585;SDS011;2815;54.094;12.112;2023-02-12T00:35:27;14.25;;;2.90;;
5585;SDS011;2815;54.094;12.112;2023-02-12T00:37:56;10.32;;;3.75;;
5585;SDS011;2815;54.094;12.112;2023-02-12T00:40:24;16.10;;;3.22;;
5585;SDS011;2815;54.094;12.112;2023-02-12T00:42:52;13.73;;;3.47;;
5585;SDS011;2815;54.094;12.112;2023-02-12T00:45:20;7.28;;;3.17;;
5585;SDS011;2815;54.094;12.112;2023-02-12T00:47:51;6.90;;;3.50;;
5585;SDS011;2815;54.094;12.112;2023-02-12T00:50:19;14.55;;;3.35;;
5585;SDS011;2815;54.094;12.112;2023-02-12T00:52:47;12.98;;;3.95;;
5585;SDS011;2815;54.094;12.112;2023-02-12T00:55:15;12.27;;;3.40;;
5585;SDS011;2815;54.094;12.112;2023-02-12T00:57:43;12.55;;;3.72;;
5585;SDS011;2815;54.094;12.112;2023-02-12T01:00:11;16.98;;;3.60;;
5585;SDS011;2815;54.094;12.112;2023-02-12T01:02:40;14.13;;;3.53;;
5585;SDS011;2815;54.094;12.112;2023-02-12T01:05:10;15.35;;;3.22;;
5585;SDS011;2815;54.094;12.112;2023-02-12T01:07:38;11.82;;;3.63;;
5585;SDS011;2815;54.094;12.112;2023-02-12T01:10:06;13.43;;;3.58;;
5585;SDS011;2815;54.094;12.112;2023-02-12T01:12:35;10.30;;;3.42;;
5585;SDS011;2815;54.094;12.112;2023-02-12T01:15:03;16.40;;;3.95;;
5585;SDS011;2815;54.094;12.112;2023-02-12T01:17:31;11.00;;;3.67;;
5585;SDS011;2815;54.094;12.112;2023-02-12T01:19:59;12.13;;;3.80;;
5585;SDS011;2815;54.094;12.112;2023-02-12T01:22:29;13.38;;;4.15;;
5585;SDS011;2815;54.094;12.112;2023-02-12T01:24:57;13.25;;;3.45;;
5585;SDS011;2815;54.094;12.112;2023-02-12T01:27:25;11.20;;;3.60;;
5585;SDS011;2815;54.094;12.112;2023-02-12T01:29:54;10.05;;;3.42;;
5585;SDS011;2815;54.094;12.112;2023-02-12T01:32:22;12.63;;;3.33;;
5585;SDS011;2815;54.094;12.112;2023-02-12T01:34:51;12.95;;;3.60;;
5585;SDS011;2815;54.094;12.112;2023-02-12T01:37:20;11.35;;;3.63;;
5585;SDS011;2815;54.094;12.112;2023-02-12T01:39:49;9.45;;;3.22;;
5585;SDS011;2815;54.094;12.112;2023-02-12T01:42:18;12.82;;;3.58;;
5585;SDS011;2815;54.094;12.112;2023-02-12T01:47:52;11.10;;;2.90;;
5585;SDS011;2815;54.094;12.112;2023-02-12T01:50:22;18.83;;;3.72;;
5585;SDS011;2815;54.094;12.112;2023-02-12T01:52:50;13.75;;;3.22;;
5585;SDS011;2815;54.094;12.112;2023-02-12T01:55:22;14.13;;;3.40;;
5585;SDS011;2815;54.094;12.112;2023-02-12T01:57:51;13.70;;;3.53;;
5585;SDS011;2815;54.094;12.112;2023-02-12T02:00:20;17.10;;;3.58;;
5585;SDS011;2815;54.094;12.112;2023-02-12T02:02:51;16.85;;;3.22;;
5585;SDS011;2815;54.094;12.112;2023-02-12T02:05:23;11.20;;;3.08;;
5585;SDS011;2815;54.094;12.112;2023-02-12T02:08:01;13.32;;;3.30;;
5585;SDS011;2815;54.094;12.112;2023-02-12T02:10:31;12.43;;;3.40;;
5585;SDS011;2815;54.094;12.112;2023-02-12T02:12:59;12.50;;;3.63;;
5585;SDS011;2815;54.094;12.112;2023-02-12T02:15:46;14.77;;;4.13;;
5585;SDS011;2815;54.094;12.112;2023-02-12T02:18:16;15.27;;;3.80;;
5585;SDS011;2815;54.094;12.112;2023-02-12T02:24:09;19.75;;;4.70;;
5585;SDS011;2815;54.094;12.112;2023-02-12T02:27:01;14.05;;;4.32;;
5585;SDS011;2815;54.094;12.112;2023-02-12T02:32:43;12.73;;;4.05;;
5585;SDS011;2815;54.094;12.112;2023-02-12T02:35:18;12.63;;;4.25;;
5585;SDS011;2815;54.094;12.112;2023-02-12T02:37:50;16.20;;;5.88;;
5585;SDS011;2815;54.094;12.112;2023-02-12T02:40:29;20.20;;;5.60;;
5585;SDS011;2815;54.094;12.112;2023-02-12T02:43:03;20.60;;;5.57;;
5585;SDS011;2815;54.094;12.112;2023-02-12T02:45:34;16.52;;;6.03;;
5585;SDS011;2815;54.094;12.112;2023-02-12T02:48:08;23.08;;;6.40;;
5585;SDS011;2815;54.094;12.112;2023-02-12T02:50:37;17.75;;;5.57;;
5585;SDS011;2815;54.094;12.112;2023-02-12T02:53:09;14.57;;;5.07;;
5585;SDS011;2815;54.094;12.112;2023-02-12T02:55:39;24.63;;;5.95;;
5585;SDS011;2815;54.094;12.112;2023-02-12T02:58:11;16.35;;;5.78;;
5585;SDS011;2815;54.094;12.112;2023-02-12T03:00:41;15.43;;;6.07;;
5585;SDS011;2815;54.094;12.112;2023-02-12T03:03:14;13.68;;;6.00;;
5585;SDS011;2815;54.094;12.112;2023-02-12T03:05:46;14.95;;;5.55;;
5585;SDS011;2815;54.094;12.112;2023-02-12T03:08:17;20.45;;;6.13;;
5585;SDS011;2815;54.094;12.112;2023-02-12T03:10:50;21.73;;;7.25;;
5585;SDS011;2815;54.094;12.112;2023-02-12T03:13:22;18.38;;;5.90;;
5585;SDS011;2815;54.094;12.112;2023-02-12T03:15:54;13.93;;;5.90;;
5585;SDS011;2815;54.094;12.112;2023-02-12T03:18:26;17.95;;;5.93;;
5585;SDS011;2815;54.094;12.112;2023-02-12T03:20:58;22.80;;;6.47;;
5585;SDS011;2815;54.094;12.112;2023-02-12T03:23:28;16.08;;;5.75;;
5585;SDS011;2815;54.094;12.112;2023-02-12T03:26:00;18.08;;;6.32;;
5585;SDS011;2815;54.094;12.112;2023-02-12T03:28:31;15.77;;;6.25;;
5585;SDS011;2815;54.094;12.112;2023-02-12T03:31:02;18.77;;;6.20;;
5585;SDS011;2815;54.094;12.112;2023-02-12T03:33:37;14.35;;;5.05;;
5585;SDS011;2815;54.094;12.112;2023-02-12T03:36:13;14.25;;;5.45;;
5585;SDS011;2815;54.094;12.112;2023-02-12T03:38:50;10.88;;;4.35;;
5585;SDS011;2815;54.094;12.112;2023-02-12T03:41:20;13.20;;;5.32;;
5585;SDS011;2815;54.094;12.112;2023-02-12T03:43:52;12.27;;;4.70;;
5585;SDS011;2815;54.094;12.112;2023-02-12T03:46:23;11.75;;;4.50;;
5585;SDS011;2815;54.094;12.112;2023-02-12T03:48:57;14.50;;;5.22;;
5585;SDS011;2815;54.094;12.112;2023-02-12T03:53:55;9.07;;;3.75;;
5585;SDS011;2815;54.094;12.112;2023-02-12T03:56:24;13.00;;;4.47;;
5585;SDS011;2815;54.094;12.112;2023-02-12T03:58:54;9.63;;;3.85;;
5585;SDS011;2815;54.094;12.112;2023-02-12T04:01:22;8.73;;;3.70;;
5585;SDS011;2815;54.094;12.112;2023-02-12T04:03:50;11.50;;;4.15;;
5585;SDS011;2815;54.094;12.112;2023-02-12T04:06:21;12.80;;;4.05;;
5585;SDS011;2815;54.094;12.112;2023-02-12T04:08:51;9.70;;;4.10;;
5585;SDS011;2815;54.094;12.112;2023-02-12T04:11:21;11.60;;;3.95;;
5585;SDS011;2815;54.094;12.112;2023-02-12T04:13:58;9.88;;;4.40;;
5585;SDS011;2815;54.094;12.112;2023-02-12T04:16:38;10.13;;;4.18;;
5585;SDS011;2815;54.094;12.112;2023-02-12T04:19:08;11.10;;;4.75;;
5585;SDS011;2815;54.094;12.112;2023-02-12T04:21:45;11.07;;;4.60;;
5585;SDS011;2815;54.094;12.112;2023-02-12T04:24:24;11.05;;;4.75;;
5585;SDS011;2815;54.094;12.112;2023-02-12T04:26:56;14.73;;;4.82;;
5585;SDS011;2815;54.094;12.112;2023-02-12T04:29:31;15.20;;;4.80;;
5585;SDS011;2815;54.094;12.112;2023-02-12T04:32:04;13.05;;;5.10;;
5585;SDS011;2815;54.094;12.112;2023-02-12T04:34:36;11.30;;;4.95;;
5585;SDS011;2815;54.094;12.112;2023-02-12T04:37:09;13.65;;;5.60;;
5585;SDS011;2815;54.094;12.112;2023-02-12T04:39:40;15.63;;;5.18;;
5585;SDS011;2815;54.094;12.112;2023-02-12T04:42:09;14.18;;;5.28;;
5585;SDS011;2815;54.094;12.112;2023-02-12T04:44:40;13.25;;;5.68;;
5585;SDS011;2815;54.094;12.112;2023-02-12T04:47:10;17.42;;;5.50;;
5585;SDS011;2815;54.094;12.112;2023-02-12T04:49:38;14.80;;;4.43;;
5585;SDS011;2815;54.094;12.112;2023-02-12T04:52:06;11.00;;;4.78;;
5585;SDS011;2815;54.094;12.112;2023-02-12T04:54:36;13.70;;;4.95;;
5585;SDS011;2815;54.094;12.112;2023-02-12T04:57:04;14.38;;;5.28;;
5585;SDS011;2815;54.094;12.112;2023-02-12T04:59:32;11.85;;;4.32;;
5585;SDS011;2815;54.094;12.112;2023-02-12T05:02:01;10.32;;;4.10;;
5585;SDS011;2815;54.094;12.112;2023-02-12T05:04:29;10.55;;;4.47;;
5585;SDS011;2815;54.094;12.112;2023-02-12T05:06:57;11.00;;;4.05;;
5585;SDS011;2815;54.094;12.112;2023-02-12T05:09:25;14.02;;;4.18;;
5585;SDS011;2815;54.094;12.112;2023-02-12T05:11:54;13.65;;;3.88;;
5585;SDS011;2815;54.094;12.112;2023-02-12T05:14:23;9.52;;;4.00;;
5585;SDS011;2815;54.094;12.112;2023-02-12T05:16:51;9.73;;;3.97;;
5585;SDS011;2815;54.094;12.112;2023-02-12T05:19:19;8.35;;;3.17;;
5585;SDS011;2815;54.094;12.112;2023-02-12T05:21:48;10.30;;;3.28;;
5585;SDS011;2815;54.094;12.112;2023-02-12T05:24:16;14.93;;;3.00;;
5585;SDS011;2815;54.094;12.112;2023-02-12T05:26:45;10.10;;;2.60;;
5585;SDS011;2815;54.094;12.112;2023-02-12T05:29:14;9.98;;;2.80;;
5585;SDS011;2815;54.094;12.112;2023-02-12T05:31:42;11.10;;;3.15;;
5585;SDS011;2815;54.094;12.112;2023-02-12T05:34:10;9.18;;;2.80;;
5585;SDS011;2815;54.094;12.112;2023-02-12T05:36:39;8.60;;;2.50;;
5585;SDS011;2815;54.094;12.112;2023-02-12T05:39:07;6.32;;;2.70;;
5585;SDS011;2815;54.094;12.112;2023-02-12T05:41:35;12.75;;;2.22;;
5585;SDS011;2815;54.094;12.112;2023-02-12T05:44:03;12.35;;;3.15;;
5585;SDS011;2815;54.094;12.112;2023-02-12T05:46:33;9.77;;;3.00;;
5585;SDS011;2815;54.094;12.112;2023-02-12T05:49:01;8.30;;;2.53;;
5585;SDS011;2815;54.094;12.112;2023-02-12T05:51:29;7.40;;;2.10;;
5585;SDS011;2815;54.094;12.112;2023-02-12T05:53:59;10.30;;;3.15;;
5585;SDS011;2815;54.094;12.112;2023-02-12T05:56:29;10.23;;;1.90;;
5585;SDS011;2815;54.094;12.112;2023-02-12T05:58:58;9.02;;;2.45;;
5585;SDS011;2815;54.094;12.112;2023-02-12T06:01:29;10.07;;;2.28;;
5585;SDS011;2815;54.094;12.112;2023-02-12T06:04:00;12.48;;;2.40;;
5585;SDS011;2815;54.094;12.112;2023-02-12T06:06:29;9.43;;;2.50;;
5585;SDS011;2815;54.094;12.112;2023-02-12T06:08:58;12.52;;;1.90;;
5585;SDS011;2815;54.094;12.112;2023-02-12T06:11:26;7.20;;;1.52;;
5585;SDS011;2815;54.094;12.112;2023-02-12T06:13:55;6.63;;;1.65;;
5585;SDS011;2815;54.094;12.112;2023-02-12T06:16:24;5.53;;;1.70;;
5585;SDS011;2815;54.094;12.112;2023-02-12T06:18:54;7.80;;;2.00;;
5585;SDS011;2815;54.094;12.112;2023-02-12T06:21:24;6.05;;;1.70;;
5585;SDS011;2815;54.094;12.112;2023-02-12T06:23:53;8.35;;;2.28;;
5585;SDS011;2815;54.094;12.112;2023-02-12T06:26:21;7.05;;;2.13;;
5585;SDS011;2815;54.094;12.112;2023-02-12T06:28:50;8.60;;;1.92;;
5585;SDS011;2815;54.094;12.112;2023-02-12T06:31:19;5.40;;;2.00;;
5585;SDS011;2815;54.094;12.112;2023-02-12T06:33:48;11.40;;;2.47;;
5585;SDS011;2815;54.094;12.112;2023-02-12T06:36:16;8.10;;;1.83;;
5585;SDS011;2815;54.094;12.112;2023-02-12T06:38:46;6.53;;;1.55;;
5585;SDS011;2815;54.094;12.112;2023-02-12T06:41:15;7.40;;;2.20;;
5585;SDS011;2815;54.094;12.112;2023-02-12T06:43:43;6.63;;;2.00;;
5585;SDS011;2815;54.094;12.112;2023-02-12T06:46:11;7.95;;;2.15;;
5585;SDS011;2815;54.094;12.112;2023-02-12T06:48:40;4.28;;;1.80;;
5585;SDS011;2815;54.094;12.112;2023-02-12T06:51:09;12.02;;;1.88;;
5585;SDS011;2815;54.094;12.112;2023-02-12T06:53:39;10.15;;;2.45;;
5585;SDS011;2815;54.094;12.112;2023-02-12T06:56:09;9.13;;;1.70;;
5585;SDS011;2815;54.094;12.112;2023-02-12T06:58:39;10.45;;;1.77;;
5585;SDS011;2815;54.094;12.112;2023-02-12T07:01:09;8.45;;;2.25;;
5585;SDS011;2815;54.094;12.112;2023-02-12T07:03:39;6.72;;;1.67;;
5585;SDS011;2815;54.094;12.112;2023-02-12T07:06:08;7.45;;;1.60;;
5585;SDS011;2815;54.094;12.112;2023-02-12T07:08:36;9.18;;;2.20;;
5585;SDS011;2815;54.094;12.112;2023-02-12T07:11:04;3.38;;;1.40;;
5585;SDS011;2815;54.094;12.112;2023-02-12T07:13:34;9.30;;;1.83;;
5585;SDS011;2815;54.094;12.112;2023-02-12T07:16:03;9.15;;;2.00;;
5585;SDS011;2815;54.094;12.112;2023-02-12T07:18:32;10.55;;;2.40;;
5585;SDS011;2815;54.094;12.112;2023-02-12T07:21:00;5.80;;;1.85;;
5585;SDS011;2815;54.094;12.112;2023-02-12T07:23:29;8.75;;;2.50;;
5585;SDS011;2815;54.094;12.112;2023-02-12T07:25:58;6.30;;;2.10;;
5585;SDS011;2815;54.094;12.112;2023-02-12T07:28:27;7.97;;;2.38;;
5585;SDS011;2815;54.094;12.112;2023-02-12T07:31:01;10.13;;;2.35;;
5585;SDS011;2815;54.094;12.112;2023-02-12T07:33:33;9.63;;;2.30;;
5585;SDS011;2815;54.094;12.112;2023-02-12T07:36:02;12.25;;;2.35;;
5585;SDS011;2815;54.094;12.112;2023-02-12T07:38:32;9.73;;;2.30;;
5585;SDS011;2815;54.094;12.112;2023-02-12T07:41:08;7.65;;;1.90;;
5585;SDS011;2815;54.094;12.112;2023-02-12T07:43:37;7.68;;;2.00;;
5585;SDS011;2815;54.094;12.112;2023-02-12T07:46:08;10.18;;;2.67;;
5585;SDS011;2815;54.094;12.112;2023-02-12T07:48:37;8.52;;;2.03;;
5585;SDS011;2815;54.094;12.112;2023-02-12T07:51:06;5.40;;;1.65;;
5585;SDS011;2815;54.094;12.112;2023-02-12T07:53:36;7.03;;;1.92;;
5585;SDS011;2815;54.094;12.112;2023-02-12T07:56:05;4.68;;;1.48;;
5585;SDS011;2815;54.094;12.112;2023-02-12T07:58:35;4.03;;;2.03;;
5585;SDS011;2815;54.094;12.112;2023-02-12T08:01:15;12.93;;;2.15;;
5585;SDS011;2815;54.094;12.112;2023-02-12T08:03:44;7.63;;;2.00;;
5585;SDS011;2815;54.094;12.112;2023-02-12T08:06:14;8.00;;;1.38;;
5585;SDS011;2815;54.094;12.112;2023-02-12T08:08:42;4.82;;;1.42;;
5585;SDS011;2815;54.094;12.112;2023-02-12T08:11:12;5.47;;;2.45;;
5585;SDS011;2815;54.094;12.112;2023-02-12T08:13:41;8.95;;;2.22;;
5585;SDS011;2815;54.094;12.112;2023-02-12T08:16:09;4.43;;;1.67;;
5585;SDS011;2815;54.094;12.112;2023-02-12T08:18:40;7.65;;;2.25;;
5585;SDS011;2815;54.094;12.112;2023-02-12T08:21:08;6.82;;;1.90;;
5585;SDS011;2815;54.094;12.112;2023-02-12T08:23:37;7.18;;;1.70;;
5585;SDS011;2815;54.094;12.112;2023-02-12T08:26:06;7.20;;;2.17;;
5585;SDS011;2815;54.094;12.112;2023-02-12T08:28:37;5.47;;;2.13;;
5585;SDS011;2815;54.094;12.112;2023-02-12T08:31:06;7.38;;;1.85;;
5585;SDS011;2815;54.094;12.112;2023-02-12T08:33:35;11.43;;;2.25;;
5585;SDS011;2815;54.094;12.112;2023-02-12T08:36:05;6.93;;;2.08;;
5585;SDS011;2815;54.094;12.112;2023-02-12T08:38:35;4.45;;;1.95;;
5585;SDS011;2815;54.094;12.112;2023-02-12T08:41:04;5.45;;;1.65;;
5585;SDS011;2815;54.094;12.112;2023-02-12T08:43:34;7.30;;;2.35;;
5585;SDS011;2815;54.094;12.112;2023-02-12T08:46:02;7.45;;;2.30;;
5585;SDS011;2815;54.094;12.112;2023-02-12T08:48:31;6.85;;;2.30;;
5585;SDS011;2815;54.094;12.112;2023-02-12T08:51:05;11.20;;;2.45;;
5585;SDS011;2815;54.094;12.112;2023-02-12T08:53:34;11.07;;;2.40;;
5585;SDS011;2815;54.094;12.112;2023-02-12T08:56:02;12.25;;;3.10;;
5585;SDS011;2815;54.094;12.112;2023-02-12T08:58:31;12.88;;;2.72;;
5585;SDS011;2815;54.094;12.112;2023-02-12T09:00:59;6.95;;;2.47;;
5585;SDS011;2815;54.094;12.112;2023-02-12T09:03:27;11.00;;;2.22;;
5585;SDS011;2815;54.094;12.112;2023-02-12T09:05:55;6.03;;;2.30;;
5585;SDS011;2815;54.094;12.112;2023-02-12T09:08:25;5.22;;;1.85;;
5585;SDS011;2815;54.094;12.112;2023-02-12T09:10:53;6.63;;;2.30;;
5585;SDS011;2815;54.094;12.112;2023-02-12T09:13:21;10.52;;;2.78;;
5585;SDS011;2815;54.094;12.112;2023-02-12T09:15:49;8.35;;;2.33;;
5585;SDS011;2815;54.094;12.112;2023-02-12T09:18:17;7.38;;;2.70;;
5585;SDS011;2815;54.094;12.112;2023-02-12T09:20:45;8.25;;;2.03;;
5585;SDS011;2815;54.094;12.112;2023-02-12T09:23:13;9.25;;;2.10;;
5585;SDS011;2815;54.094;12.112;2023-02-12T09:25:43;9.48;;;2.33;;
5585;SDS011;2815;54.094;12.112;2023-02-12T09:28:13;9.65;;;1.73;;
5585;SDS011;2815;54.094;12.112;2023-02-12T09:30:41;8.80;;;2.00;;
5585;SDS011;2815;54.094;12.112;2023-02-12T09:33:10;9.32;;;2.40;;
5585;SDS011;2815;54.094;12.112;2023-02-12T09:35:38;6.32;;;2.40;;
5585;SDS011;2815;54.094;12.112;2023-02-12T09:38:06;7.65;;;2.28;;
5585;SDS011;2815;54.094;12.112;2023-02-12T09:40:38;10.48;;;2.30;;
5585;SDS011;2815;54.094;12.112;2023-02-12T09:43:19;10.93;;;2.70;;
5585;SDS011;2815;54.094;12.112;2023-02-12T09:45:54;9.45;;;2.78;;
5585;SDS011;2815;54.094;12.112;2023-02-12T09:50:59;2.30;;;1.38;;
5585;SDS011;2815;54.094;12.112;2023-02-12T09:53:31;8.35;;;2.30;;
5585;SDS011;2815;54.094;12.112;2023-02-12T09:56:02;10.70;;;2.47;;
5585;SDS011;2815;54.094;12.112;2023-02-12T09:58:39;4.97;;;1.83;;
5585;SDS011;2815;54.094;12.112;2023-02-12T10:01:10;5.15;;;1.83;;
5585;SDS011;2815;54.094;12.112;2023-02-12T10:03:38;5.75;;;1.60;;
5585;SDS011;2815;54.094;12.112;2023-02-12T10:06:08;6.43;;;1.40;;
5585;SDS011;2815;54.094;12.112;2023-02-12T10:08:44;13.52;;;2.50;;
5585;SDS011;2815;54.094;12.112;2023-02-12T10:11:19;6.80;;;1.75;;
5585;SDS011;2815;54.094;12.112;2023-02-12T10:14:00;5.35;;;2.13;;
5585;SDS011;2815;54.094;12.112;2023-02-12T10:16:40;7.45;;;2.03;;
5585;SDS011;2815;54.094;12.112;2023-02-12T10:19:14;6.50;;;2.35;;
5585;SDS011;2815;54.094;12.112;2023-02-12T10:21:53;6.43;;;2.10;;
5585;SDS011;2815;54.094;12.112;2023-02-12T10:24:33;7.45;;;2.13;;
5585;SDS011;2815;54.094;12.112;2023-02-12T10:27:13;7.35;;;2.60;;
5585;SDS011;2815;54.094;12.112;2023-02-12T10:29:44;5.45;;;2.78;;
5585;SDS011;2815;54.094;12.112;2023-02-12T10:32:13;9.77;;;3.00;;
5585;SDS011;2815;54.094;12.112;2023-02-12T10:34:46;14.07;;;3.42;;
5585;SDS011;2815;54.094;12.112;2023-02-12T10:37:18;5.53;;;2.63;;
5585;SDS011;2815;54.094;12.112;2023-02-12T10:39:53;6.85;;;2.35;;
5585;SDS011;2815;54.094;12.112;2023-02-12T10:42:25;13.18;;;3.20;;
5585;SDS011;2815;54.094;12.112;2023-02-12T10:45:03;7.78;;;3.38;;
5585;SDS011;2815;54.094;12.112;2023-02-12T10:47:31;14.18;;;3.47;;
5585;SDS011;2815;54.094;12.112;2023-02-12T10:50:00;10.82;;;3.50;;
5585;SDS011;2815;54.094;12.112;2023-02-12T10:52:40;9.38;;;3.85;;
5585;SDS011;2815;54.094;12.112;2023-02-12T10:55:22;14.53;;;3.53;;
5585;SDS011;2815;54.094;12.112;2023-02-12T10:57:56;13.07;;;3.25;;
5585;SDS011;2815;54.094;12.112;2023-02-12T11:00:28;7.55;;;3.20;;
5585;SDS011;2815;54.094;12.112;2023-02-12T11:03:05;13.95;;;3.63;;
5585;SDS011;2815;54.094;12.112;2023-02-12T11:05:44;12.73;;;3.55;;
5585;SDS011;2815;54.094;12.112;2023-02-12T11:08:25;10.27;;;3.15;;
5585;SDS011;2815;54.094;12.112;2023-02-12T11:11:02;8.88;;;2.80;;
5585;SDS011;2815;54.094;12.112;2023-02-12T11:13:31;6.57;;;2.60;;
5585;SDS011;2815;54.094;12.112;2023-02-12T11:16:01;8.38;;;3.03;;
5585;SDS011;2815;54.094;12.112;2023-02-12T11:18:29;8.25;;;2.65;;
5585;SDS011;2815;54.094;12.112;2023-02-12T11:20:59;9.70;;;3.22;;
5585;SDS011;2815;54.094;12.112;2023-02-12T11:23:28;9.85;;;3.10;;
5585;SDS011;2815;54.094;12.112;2023-02-12T11:25:58;10.50;;;3.03;;
5585;SDS011;2815;54.094;12.112;2023-02-12T11:28:28;9.43;;;3.10;;
5585;SDS011;2815;54.094;12.112;2023-02-12T11:30:58;9.77;;;2.70;;
5585;SDS011;2815;54.094;12.112;2023-02-12T11:33:29;7.60;;;2.58;;
5585;SDS011;2815;54.094;12.112;2023-02-12T11:35:59;9.32;;;2.30;;
5585;SDS011;2815;54.094;12.112;2023-02-12T11:38:33;7.20;;;2.47;;
5585;SDS011;2815;54.094;12.112;2023-02-12T11:41:05;9.48;;;2.45;;
5585;SDS011;2815;54.094;12.112;2023-02-12T11:46:05;7.75;;;2.10;;
5585;SDS011;2815;54.094;12.112;2023-02-12T11:48:37;8.85;;;2.65;;
5585;SDS011;2815;54.094;12.112;2023-02-12T11:51:06;9.57;;;2.83;;
5585;SDS011;2815;54.094;12.112;2023-02-12T11:53:36;9.52;;;2.42;;
5585;SDS011;2815;54.094;12.112;2023-02-12T11:56:09;9.20;;;3.20;;
5585;SDS011;2815;54.094;12.112;2023-02-12T11:58:38;4.22;;;1.73;;
5585;SDS011;2815;54.094;12.112;2023-02-12T12:01:09;8.20;;;2.70;;
5585;SDS011;2815;54.094;12.112;2023-02-12T12:03:42;4.50;;;1.80;;
5585;SDS011;2815;54.094;12.112;2023-02-12T12:08:44;6.88;;;1.90;;
5585;SDS011;2815;54.094;12.112;2023-02-12T12:11:17;7.20;;;1.77;;
5585;SDS011;2815;54.094;12.112;2023-02-12T12:13:47;8.77;;;1.83;;
5585;SDS011;2815;54.094;12.112;2023-02-12T12:16:18;7.60;;;2.10;;
5585;SDS011;2815;54.094;12.112;2023-02-12T12:19:10;6.97;;;1.55;;
5585;SDS011;2815;54.094;12.112;2023-02-12T12:22:01;9.60;;;2.25;;
5585;SDS011;2815;54.094;12.112;2023-02-12T12:24:39;7.00;;;2.75;;
5585;SDS011;2815;54.094;12.112;2023-02-12T12:27:13;8.00;;;2.10;;
5585;SDS011;2815;54.094;12.112;2023-02-12T12:30:14;15.00;;;2.97;;
5585;SDS011;2815;54.094;12.112;2023-02-12T12:32:46;7.35;;;1.88;;
5585;SDS011;2815;54.094;12.112;2023-02-12T12:35:17;8.35;;;1.90;;
5585;SDS011;2815;54.094;12.112;2023-02-12T12:37:53;9.70;;;2.30;;
5585;SDS011;2815;54.094;12.112;2023-02-12T12:40:33;11.80;;;2.17;;
5585;SDS011;2815;54.094;12.112;2023-02-12T12:43:10;5.00;;;1.92;;
5585;SDS011;2815;54.094;12.112;2023-02-12T12:45:53;9.02;;;1.92;;
5585;SDS011;2815;54.094;12.112;2023-02-12T12:48:40;4.47;;;1.80;;
5585;SDS011;2815;54.094;12.112;2023-02-12T12:51:29;6.50;;;1.88;;
5585;SDS011;2815;54.094;12.112;2023-02-12T12:54:06;10.05;;;2.42;;
5585;SDS011;2815;54.094;12.112;2023-02-12T12:56:51;8.18;;;2.30;;
5585;SDS011;2815;54.094;12.112;2023-02-12T12:59:37;7.88;;;2.30;;
5585;SDS011;2815;54.094;12.112;2023-02-12T13:02:26;11.77;;;2.72;;
5585;SDS011;2815;54.094;12.112;2023-02-12T13:08:27;9.73;;;2.10;;
5585;SDS011;2815;54.094;12.112;2023-02-12T13:11:03;12.40;;;2.60;;
5585;SDS011;2815;54.094;12.112;2023-02-12T13:13:36;7.90;;;2.15;;
5585;SDS011;2815;54.094;12.112;2023-02-12T13:16:06;7.63;;;2.08;;
5585;SDS011;2815;54.094;12.112;2023-02-12T13:18:41;7.88;;;1.95;;
5585;SDS011;2815;54.094;12.112;2023-02-12T13:21:16;9.32;;;2.83;;
5585;SDS011;2815;54.094;12.112;2023-02-12T13:23:52;7.25;;;2.33;;
5585;SDS011;2815;54.094;12.112;2023-02-12T13:26:22;5.00;;;1.67;;
5585;SDS011;2815;54.094;12.112;2023-02-12T13:28:57;11.63;;;2.35;;
5585;SDS011;2815;54.094;12.112;2023-02-12T13:31:28;6.30;;;1.85;;
5585;SDS011;2815;54.094;12.112;2023-02-12T13:34:00;8.40;;;1.77;;
5585;SDS011;2815;54.094;12.112;2023-02-12T13:36:29;8.98;;;2.85;;
5585;SDS011;2815;54.094;12.112;2023-02-12T13:39:00;4.88;;;2.10;;
5585;SDS011;2815;54.094;12.112;2023-02-12T13:41:33;8.93;;;2.47;;
5585;SDS011;2815;54.094;12.112;2023-02-12T13:44:04;9.02;;;2.55;;
5585;SDS011;2815;54.094;12.112;2023-02-12T13:46:37;7.80;;;2.15;;
5585;SDS011;2815;54.094;12.112;2023-02-12T13:49:13;7.00;;;2.50;;
5585;SDS011;2815;54.094;12.112;2023-02-12T13:51:50;7.55;;;2.17;;
5585;SDS011;2815;54.094;12.112;2023-02-12T13:54:37;12.05;;;2.05;;
5585;SDS011;2815;54.094;12.112;2023-02-12T13:57:14;8.48;;;2.13;;
5585;SDS011;2815;54.094;12.112;2023-02-12T13:59:44;9.95;;;2.17;;
5585;SDS011;2815;54.094;12.112;2023-02-12T14:05:16;10.23;;;2.30;;
5585;SDS011;2815;54.094;12.112;2023-02-12T14:07:48;6.43;;;2.05;;
5585;SDS011;2815;54.094;12.112;2023-02-12T14:10:22;8.13;;;2.40;;
5585;SDS011;2815;54.094;12.112;2023-02-12T14:12:52;10.07;;;2.65;;
5585;SDS011;2815;54.094;12.112;2023-02-12T14:15:27;13.20;;;3.20;;
5585;SDS011;2815;54.094;12.112;2023-02-12T14:18:03;10.45;;;3.42;;
5585;SDS011;2815;54.094;12.112;2023-02-12T14:20:33;9.27;;;3.13;;
5585;SDS011;2815;54.094;12.112;2023-02-12T14:23:18;11.38;;;4.10;;
5585;SDS011;2815;54.094;12.112;2023-02-12T14:25:56;15.13;;;3.85;;
5585;SDS011;2815;54.094;12.112;2023-02-12T14:28:26;14.35;;;4.00;;
5585;SDS011;2815;54.094;12.112;2023-02-12T14:37:16;7.75;;;3.25;;
5585;SDS011;2815;54.094;12.112;2023-02-12T14:45:27;14.27;;;3.75;;
5585;SDS011;2815;54.094;12.112;2023-02-12T14:47:57;12.30;;;3.90;;
5585;SDS011;2815;54.094;12.112;2023-02-12T14:50:28;8.68;;;3.17;;
5585;SDS011;2815;54.094;12.112;2023-02-12T14:53:03;13.70;;;4.40;;
5585;SDS011;2815;54.094;12.112;2023-02-12T14:55:33;11.00;;;3.75;;
5585;SDS011;2815;54.094;12.112;2023-02-12T14:58:04;11.63;;;3.97;;
5585;SDS011;2815;54.094;12.112;2023-02-12T15:00:43;11.18;;;4.10;;
5585;SDS011;2815;54.094;12.112;2023-02-12T15:03:15;12.70;;;3.65;;
5585;SDS011;2815;54.094;12.112;2023-02-12T15:05:46;12.23;;;3.70;;
5585;SDS011;2815;54.094;12.112;2023-02-12T15:08:18;11.57;;;3.72;;
5585;SDS011;2815;54.094;12.112;2023-02-12T15:10:53;9.05;;;3.47;;
5585;SDS011;2815;54.094;12.112;2023-02-12T15:13:25;9.95;;;4.30;;
5585;SDS011;2815;54.094;12.112;2023-02-12T15:15:56;12.32;;;3.30;;
5585;SDS011;2815;54.094;12.112;2023-02-12T15:21:12;8.82;;;2.80;;
5585;SDS011;2815;54.094;12.112;2023-02-12T15:23:46;8.40;;;3.30;;
5585;SDS011;2815;54.094;12.112;2023-02-12T15:26:15;12.35;;;4.15;;
5585;SDS011;2815;54.094;12.112;2023-02-12T15:28:46;8.00;;;2.90;;
5585;SDS011;2815;54.094;12.112;2023-02-12T15:31:16;10.98;;;3.05;;
5585;SDS011;2815;54.094;12.112;2023-02-12T15:33:48;8.50;;;3.22;;
5585;SDS011;2815;54.094;12.112;2023-02-12T15:36:17;8.00;;;3.05;;
5585;SDS011;2815;54.094;12.112;2023-02-12T15:38:47;9.75;;;3.97;;
5585;SDS011;2815;54.094;12.112;2023-02-12T15:41:24;9.82;;;3.47;;
5585;SDS011;2815;54.094;12.112;2023-02-12T15:43:58;6.35;;;3.30;;
5585;SDS011;2815;54.094;12.112;2023-02-12T15:46:29;7.15;;;3.08;;
5585;SDS011;2815;54.094;12.112;2023-02-12T15:48:57;15.48;;;4.47;;
5585;SDS011;2815;54.094;12.112;2023-02-12T15:51:27;8.23;;;3.20;;
5585;SDS011;2815;54.094;12.112;2023-02-12T15:53:57;10.13;;;3.30;;
5585;SDS011;2815;54.094;12.112;2023-02-12T15:56:26;9.05;;;3.08;;
5585;SDS011;2815;54.094;12.112;2023-02-12T15:58:55;11.45;;;3.40;;
5585;SDS011;2815;54.094;12.112;2023-02-12T16:01:26;10.25;;;3.40;;